createdAt,value
2023-01-29T00:01:16.290Z,10.00
2023-01-29T00:03:21.446Z,11.60
2023-01-29T00:05:28.177Z,11.80
2023-01-29T00:07:33.181Z,11.63
2023-01-29T00:09:37.873Z,10.05
2023-01-29T00:11:43.134Z,9.65
2023-01-29T00:13:47.888Z,10.80
2023-01-29T00:15:57.383Z,9.48
2023-01-29T00:18:04.639Z,9.02
2023-01-29T00:20:10.326Z,9.50
2023-01-29T00:22:15.137Z,9.32
2023-01-29T00:24:19.904Z,9.23
2023-01-29T00:26:24.564Z,11.45
2023-01-29T00:28:29.976Z,10.38
2023-01-29T00:30:34.618Z,11.10
2023-01-29T00:32:39.334Z,10.85
2023-01-29T00:34:46.716Z,8.80
2023-01-29T00:37:04.981Z,9.73
2023-01-29T00:39:11.059Z,8.95
2023-01-29T00:41:30.289Z,9.35
2023-01-29T00:43:47.395Z,9.82
2023-01-29T00:45:52.183Z,9.65
2023-01-29T00:47:57.061Z,10.40
2023-01-29T00:50:05.082Z,8.77
2023-01-29T00:52:27.746Z,10.07
2023-01-29T00:54:33.280Z,9.88
2023-01-29T00:56:39.590Z,8.48
2023-01-29T00:58:44.264Z,9.98
2023-01-29T01:00:49.023Z,9.40
2023-01-29T01:03:06.033Z,9.00
2023-01-29T01:05:18.248Z,9.50
2023-01-29T01:07:23.664Z,8.77
2023-01-29T01:09:40.915Z,10.95
2023-01-29T01:11:45.679Z,9.40
2023-01-29T01:13:51.307Z,10.27
2023-01-29T01:15:57.911Z,8.52
2023-01-29T01:18:04.635Z,10.07
2023-01-29T01:20:11.017Z,10.93
2023-01-29T01:22:18.614Z,9.88
2023-01-29T01:24:23.496Z,9.32
2023-01-29T01:26:28.922Z,9.65
2023-01-29T01:28:35.898Z,9.05
2023-01-29T01:30:40.569Z,9.98
2023-01-29T01:32:46.064Z,9.50
2023-01-29T01:34:50.677Z,8.27
2023-01-29T01:36:55.969Z,8.38
2023-01-29T01:39:03.763Z,9.82
2023-01-29T01:41:11.460Z,9.10
2023-01-29T01:43:16.406Z,10.70
2023-01-29T01:45:23.408Z,11.13
2023-01-29T01:47:32.865Z,7.95
2023-01-29T01:49:37.590Z,10.23
2023-01-29T01:51:46.391Z,10.35
2023-01-29T01:53:58.627Z,9.35
2023-01-29T01:56:10.511Z,9.05
2023-01-29T01:58:21.100Z,10.13
2023-01-29T02:00:28.903Z,6.07
2023-01-29T02:02:46.157Z,5.95
2023-01-29T02:05:04.775Z,6.65
2023-01-29T02:07:23.993Z,4.60
2023-01-29T02:09:36.339Z,3.35
2023-01-29T02:11:44.098Z,3.60
2023-01-29T02:13:53.724Z,7.18
2023-01-29T02:16:03.409Z,6.88
2023-01-29T02:18:08.335Z,6.90
2023-01-29T02:20:24.304Z,7.28
2023-01-29T02:22:56.511Z,8.35
2023-01-29T02:25:26.135Z,8.13
2023-01-29T02:27:39.166Z,7.55
2023-01-29T02:30:05.887Z,7.35
2023-01-29T02:32:23.214Z,7.82
2023-01-29T02:34:52.023Z,9.45
2023-01-29T02:37:05.425Z,7.63
2023-01-29T02:41:29.400Z,7.20
2023-01-29T02:43:39.766Z,7.35
2023-01-29T02:45:53.520Z,7.45
2023-01-29T02:48:01.472Z,7.43
2023-01-29T02:50:16.255Z,7.38
2023-01-29T02:52:26.577Z,8.27
2023-01-29T02:54:37.765Z,8.60
2023-01-29T02:56:51.163Z,7.68
2023-01-29T03:01:12.995Z,7.13
2023-01-29T03:03:23.407Z,7.00
2023-01-29T03:05:35.340Z,8.02
2023-01-29T03:07:45.080Z,6.53
2023-01-29T03:10:01.570Z,4.15
2023-01-29T03:12:20.069Z,3.80
2023-01-29T03:14:53.089Z,4.10
2023-01-29T03:17:01.593Z,4.50
2023-01-29T03:19:11.380Z,3.67
2023-01-29T03:21:33.572Z,4.13
2023-01-29T03:23:52.238Z,4.25
2023-01-29T03:26:14.742Z,5.22
2023-01-29T03:28:34.306Z,5.50
2023-01-29T03:30:56.407Z,5.60
2023-01-29T03:33:26.832Z,6.00
2023-01-29T03:35:36.582Z,5.03
2023-01-29T03:37:46.488Z,5.35
2023-01-29T03:39:51.754Z,5.85
2023-01-29T03:42:01.799Z,7.35
2023-01-29T03:44:17.504Z,5.15
2023-01-29T03:46:31.512Z,5.47
2023-01-29T03:48:44.465Z,6.45
2023-01-29T03:50:59.082Z,6.18
2023-01-29T03:53:11.041Z,6.18
2023-01-29T03:55:20.329Z,6.43
2023-01-29T03:57:34.580Z,7.22
2023-01-29T03:59:45.394Z,6.40
2023-01-29T04:02:16.104Z,6.63
2023-01-29T04:04:29.558Z,7.93
2023-01-29T04:08:57.814Z,5.75
2023-01-29T04:11:10.256Z,8.38
2023-01-29T04:13:17.822Z,6.78
2023-01-29T04:15:26.977Z,7.78
2023-01-29T04:17:38.400Z,7.43
2023-01-29T04:19:58.662Z,7.30
2023-01-29T04:22:10.033Z,7.03
2023-01-29T04:24:16.467Z,7.25
2023-01-29T04:26:56.908Z,7.90
2023-01-29T04:29:21.710Z,5.45
2023-01-29T04:31:35.535Z,6.13
2023-01-29T04:36:06.183Z,6.05
2023-01-29T04:38:16.039Z,5.57
2023-01-29T04:40:26.723Z,6.60
2023-01-29T04:42:35.115Z,6.95
2023-01-29T04:44:45.142Z,7.20
2023-01-29T04:46:55.708Z,5.38
2023-01-29T04:49:10.669Z,5.93
2023-01-29T04:51:25.484Z,5.28
2023-01-29T04:53:38.329Z,4.68
2023-01-29T04:55:47.848Z,5.60
2023-01-29T04:57:58.711Z,5.57
2023-01-29T05:00:10.147Z,5.40
2023-01-29T05:02:15.948Z,5.60
2023-01-29T05:04:23.413Z,5.68
2023-01-29T05:06:33.578Z,5.95
2023-01-29T05:08:41.576Z,5.82
2023-01-29T05:10:47.161Z,5.20
2023-01-29T05:12:56.991Z,5.05
2023-01-29T05:15:05.359Z,5.40
2023-01-29T05:17:17.588Z,5.22
2023-01-29T05:19:22.226Z,5.20
2023-01-29T05:21:30.512Z,6.30
2023-01-29T05:23:35.350Z,5.13
2023-01-29T05:25:40.552Z,6.45
2023-01-29T05:27:57.764Z,7.32
2023-01-29T05:30:02.476Z,5.68
2023-01-29T05:32:07.154Z,6.32
2023-01-29T05:34:11.954Z,6.80
2023-01-29T05:36:16.733Z,5.90
2023-01-29T05:38:25.406Z,5.93
2023-01-29T05:40:30.031Z,6.13
2023-01-29T05:42:35.647Z,5.53
2023-01-29T05:44:40.347Z,5.85
2023-01-29T05:46:45.231Z,6.18
2023-01-29T05:48:49.998Z,8.07
2023-01-29T05:50:54.965Z,7.68
2023-01-29T05:53:00.427Z,6.90
2023-01-29T05:55:09.493Z,6.43
2023-01-29T05:57:14.154Z,7.50
2023-01-29T05:59:19.472Z,8.02
2023-01-29T06:01:26.499Z,6.43
2023-01-29T06:03:32.067Z,7.65
2023-01-29T06:05:36.797Z,7.07
2023-01-29T06:07:45.341Z,8.07
2023-01-29T06:09:50.170Z,7.07
2023-01-29T06:11:58.393Z,6.72
2023-01-29T06:14:03.024Z,7.80
2023-01-29T06:16:08.727Z,6.68
2023-01-29T06:18:13.431Z,9.43
2023-01-29T06:20:18.354Z,8.73
2023-01-29T06:22:23.157Z,7.05
2023-01-29T06:24:27.857Z,6.57
2023-01-29T06:26:32.518Z,7.45
2023-01-29T06:28:40.090Z,8.02
2023-01-29T06:30:44.812Z,9.23
2023-01-29T06:32:49.552Z,7.75
2023-01-29T06:34:54.215Z,8.25
2023-01-29T06:36:59.089Z,8.02
2023-01-29T06:39:04.032Z,8.70
2023-01-29T06:41:13.238Z,7.95
2023-01-29T06:43:17.896Z,7.32
2023-01-29T06:45:25.259Z,6.20
2023-01-29T06:47:31.129Z,5.18
2023-01-29T06:49:35.823Z,7.07
2023-01-29T06:51:40.582Z,6.32
2023-01-29T06:53:46.434Z,6.25
2023-01-29T06:55:55.011Z,6.18
2023-01-29T06:57:59.689Z,6.53
2023-01-29T07:00:04.322Z,6.85
2023-01-29T07:02:12.221Z,5.75
2023-01-29T07:04:16.943Z,6.68
2023-01-29T07:06:22.434Z,9.02
2023-01-29T07:08:27.726Z,8.25
2023-01-29T07:10:32.529Z,9.55
2023-01-29T07:12:37.230Z,7.90
2023-01-29T07:14:41.955Z,7.53
2023-01-29T07:16:46.628Z,8.18
2023-01-29T07:18:54.248Z,8.43
2023-01-29T07:20:59.150Z,8.45
2023-01-29T07:23:03.774Z,7.75
2023-01-29T07:25:10.208Z,7.45
2023-01-29T07:27:14.951Z,10.85
2023-01-29T07:29:19.733Z,9.55
2023-01-29T07:31:24.750Z,10.63
2023-01-29T07:33:29.557Z,7.70
2023-01-29T07:35:39.702Z,8.23
2023-01-29T07:37:44.312Z,7.57
2023-01-29T07:39:49.384Z,9.30
2023-01-29T07:41:54.058Z,9.68
2023-01-29T07:44:00.934Z,9.13
2023-01-29T07:46:06.162Z,10.13
2023-01-29T07:48:14.342Z,9.10
2023-01-29T07:50:19.518Z,9.18
2023-01-29T07:52:26.909Z,8.38
2023-01-29T07:54:31.564Z,8.30
2023-01-29T07:56:36.264Z,8.45
2023-01-29T07:58:41.035Z,9.95
2023-01-29T08:00:45.839Z,9.10
2023-01-29T08:02:50.500Z,10.52
2023-01-29T08:04:55.241Z,12.65
2023-01-29T08:07:00.077Z,9.48
2023-01-29T08:09:08.648Z,9.23
2023-01-29T08:11:13.341Z,7.90
2023-01-29T08:13:18.179Z,9.63
2023-01-29T08:15:22.916Z,8.00
2023-01-29T08:17:27.658Z,9.50
2023-01-29T08:19:32.350Z,9.20
2023-01-29T08:21:37.398Z,8.82
2023-01-29T08:23:42.036Z,8.40
2023-01-29T08:25:49.365Z,10.15
2023-01-29T08:27:54.363Z,9.32
2023-01-29T08:29:59.085Z,9.57
2023-01-29T08:32:03.842Z,9.15
2023-01-29T08:34:08.636Z,8.90
2023-01-29T08:36:13.725Z,9.02
2023-01-29T08:38:18.429Z,8.23
2023-01-29T08:40:23.067Z,9.10
2023-01-29T08:42:30.558Z,7.47
2023-01-29T08:44:35.386Z,6.63
2023-01-29T08:46:40.824Z,7.78
2023-01-29T08:48:45.474Z,7.50
2023-01-29T08:50:50.224Z,8.25
2023-01-29T08:52:54.954Z,8.05
2023-01-29T08:54:59.757Z,10.30
2023-01-29T08:57:04.430Z,11.05
2023-01-29T08:59:12.826Z,9.07
2023-01-29T09:01:17.809Z,8.38
2023-01-29T09:03:22.592Z,6.97
2023-01-29T09:05:27.230Z,8.60
2023-01-29T09:07:32.692Z,9.35
2023-01-29T09:09:38.416Z,7.65
2023-01-29T09:11:43.375Z,9.02
2023-01-29T09:13:47.977Z,13.35
2023-01-29T09:15:55.875Z,11.05
2023-01-29T09:18:05.401Z,8.35
2023-01-29T09:20:11.536Z,10.13
2023-01-29T09:22:16.326Z,9.07
2023-01-29T09:24:21.188Z,8.68
2023-01-29T09:26:25.846Z,7.88
2023-01-29T09:28:31.128Z,10.02
2023-01-29T09:30:37.900Z,9.48
2023-01-29T09:32:54.447Z,8.10
2023-01-29T09:34:59.597Z,9.30
2023-01-29T09:37:04.256Z,7.95
2023-01-29T09:39:08.934Z,9.40
2023-01-29T09:41:29.652Z,10.27
2023-01-29T09:43:45.721Z,9.35
2023-01-29T09:45:57.297Z,7.95
2023-01-29T09:48:08.432Z,8.60
2023-01-29T09:50:20.412Z,6.15
2023-01-29T09:52:28.415Z,8.18
2023-01-29T09:54:38.590Z,7.78
2023-01-29T09:56:45.008Z,7.82
2023-01-29T09:58:50.200Z,7.05
2023-01-29T10:01:02.852Z,7.30
2023-01-29T10:03:26.516Z,8.27
2023-01-29T10:05:48.733Z,7.72
2023-01-29T10:08:22.917Z,7.47
2023-01-29T10:10:40.714Z,8.18
2023-01-29T10:13:10.720Z,8.32
2023-01-29T10:15:31.126Z,7.65
2023-01-29T10:18:01.998Z,9.35
2023-01-29T10:20:28.782Z,6.88
2023-01-29T10:23:01.587Z,7.05
2023-01-29T10:25:08.504Z,6.72
2023-01-29T10:27:18.767Z,8.23
2023-01-29T10:29:24.794Z,7.82
2023-01-29T10:31:36.492Z,6.68
2023-01-29T10:33:54.231Z,7.15
2023-01-29T10:36:13.733Z,7.65
2023-01-29T10:38:31.147Z,6.63
2023-01-29T10:40:41.878Z,6.63
2023-01-29T10:42:52.831Z,7.28
2023-01-29T10:45:12.127Z,6.97
2023-01-29T10:47:40.596Z,6.85
2023-01-29T10:50:03.458Z,7.07
2023-01-29T10:52:32.142Z,6.60
2023-01-29T10:54:52.941Z,6.47
2023-01-29T10:57:09.710Z,7.25
2023-01-29T10:59:30.578Z,6.88
2023-01-29T11:01:35.402Z,7.25
2023-01-29T11:03:40.207Z,7.57
2023-01-29T11:05:48.066Z,7.07
2023-01-29T11:08:04.784Z,6.80
2023-01-29T11:10:14.654Z,7.75
2023-01-29T11:12:23.710Z,6.45
2023-01-29T11:14:32.881Z,6.82
2023-01-29T11:16:43.923Z,7.47
2023-01-29T11:18:58.443Z,7.97
2023-01-29T11:21:05.536Z,7.63
2023-01-29T11:23:28.226Z,6.53
2023-01-29T11:25:33.846Z,6.18
2023-01-29T11:27:45.584Z,5.82
2023-01-29T11:29:51.311Z,6.55
2023-01-29T11:31:56.711Z,7.53
2023-01-29T11:34:06.854Z,6.25
2023-01-29T11:36:25.058Z,6.32
2023-01-29T11:38:32.598Z,6.32
2023-01-29T11:40:42.744Z,7.25
2023-01-29T11:42:48.192Z,7.60
2023-01-29T11:44:52.910Z,7.57
2023-01-29T11:46:58.534Z,7.88
2023-01-29T11:49:19.147Z,6.70
2023-01-29T11:51:28.656Z,7.38
2023-01-29T11:53:43.187Z,8.00
2023-01-29T11:55:51.742Z,6.15
2023-01-29T11:58:01.042Z,6.70
2023-01-29T12:00:10.165Z,6.85
2023-01-29T12:02:26.956Z,7.03
2023-01-29T12:04:32.187Z,6.78
2023-01-29T12:06:39.392Z,7.43
2023-01-29T12:08:46.865Z,7.20
2023-01-29T12:10:51.910Z,7.68
2023-01-29T12:13:07.995Z,7.53
2023-01-29T12:15:25.386Z,7.32
2023-01-29T12:17:36.234Z,7.75
2023-01-29T12:19:45.600Z,6.20
2023-01-29T12:21:53.971Z,6.93
2023-01-29T12:24:06.796Z,7.50
2023-01-29T12:26:16.045Z,8.13
2023-01-29T12:28:33.525Z,9.55
2023-01-29T12:30:47.346Z,7.32
2023-01-29T12:33:00.324Z,8.18
2023-01-29T12:35:12.110Z,8.50
2023-01-29T12:37:24.002Z,8.63
2023-01-29T12:39:32.641Z,6.70
2023-01-29T12:41:45.978Z,6.30
2023-01-29T12:43:55.035Z,6.07
2023-01-29T12:46:02.640Z,8.27
2023-01-29T12:48:11.653Z,7.47
2023-01-29T12:50:22.879Z,7.10
2023-01-29T12:52:39.791Z,6.30
2023-01-29T12:54:54.208Z,7.28
2023-01-29T12:57:03.552Z,6.30
2023-01-29T12:59:17.887Z,6.97
2023-01-29T13:01:28.695Z,7.50
2023-01-29T13:03:42.305Z,8.32
2023-01-29T13:05:51.054Z,7.03
2023-01-29T13:08:01.398Z,9.15
2023-01-29T13:10:15.376Z,15.50
2023-01-29T13:12:23.380Z,10.02
2023-01-29T13:14:33.990Z,9.85
2023-01-29T13:16:43.490Z,11.75
2023-01-29T13:18:51.681Z,8.90
2023-01-29T13:20:57.148Z,7.38
2023-01-29T13:23:21.545Z,9.10
2023-01-29T13:25:29.035Z,8.18
2023-01-29T13:27:36.301Z,8.23
2023-01-29T13:29:41.077Z,10.20
2023-01-29T13:31:51.441Z,14.95
2023-01-29T13:33:58.793Z,11.63
2023-01-29T13:36:03.680Z,9.27
2023-01-29T13:38:09.714Z,8.82
2023-01-29T13:40:24.788Z,7.88
2023-01-29T13:42:41.466Z,7.53
2023-01-29T13:44:51.296Z,8.13
2023-01-29T13:47:01.527Z,12.18
2023-01-29T13:49:06.264Z,8.40
2023-01-29T13:51:17.866Z,6.95
2023-01-29T13:53:26.541Z,8.10
2023-01-29T13:55:34.402Z,10.00
2023-01-29T13:57:56.894Z,8.25
2023-01-29T14:00:01.732Z,8.07
2023-01-29T14:02:22.002Z,7.57
2023-01-29T14:04:31.067Z,7.45
2023-01-29T14:06:45.839Z,7.82
2023-01-29T14:08:50.939Z,11.63
2023-01-29T14:11:36.392Z,11.05
2023-01-29T14:13:45.133Z,8.02
2023-01-29T14:16:24.759Z,7.63
2023-01-29T14:18:30.435Z,7.13
2023-01-29T14:20:45.847Z,6.95
2023-01-29T14:22:59.638Z,7.25
2023-01-29T14:25:08.302Z,9.20
2023-01-29T14:27:25.396Z,7.88
2023-01-29T14:29:39.446Z,7.57
2023-01-29T14:31:46.620Z,9.20
2023-01-29T14:33:51.889Z,10.13
2023-01-29T14:35:58.970Z,9.00
2023-01-29T14:38:08.116Z,7.95
2023-01-29T14:40:23.563Z,9.00
2023-01-29T14:42:31.516Z,11.43
2023-01-29T14:45:26.321Z,8.75
2023-01-29T14:47:56.460Z,9.13
2023-01-29T14:50:03.368Z,6.60
2023-01-29T14:52:13.184Z,7.43
2023-01-29T14:54:28.014Z,8.07
2023-01-29T14:56:38.383Z,9.27
2023-01-29T14:58:48.069Z,9.35
2023-01-29T15:00:58.980Z,8.95
2023-01-29T15:03:06.612Z,8.50
2023-01-29T15:05:17.037Z,8.27
2023-01-29T15:07:30.745Z,8.38
2023-01-29T15:09:42.960Z,8.23
2023-01-29T15:11:55.407Z,9.75
2023-01-29T15:14:11.335Z,8.57
2023-01-29T15:16:23.731Z,7.05
2023-01-29T15:18:34.653Z,10.05
2023-01-29T15:20:41.273Z,8.48
2023-01-29T15:22:46.605Z,7.53
2023-01-29T15:25:07.480Z,8.63
2023-01-29T15:27:16.838Z,9.75
2023-01-29T15:29:27.558Z,10.75
2023-01-29T15:31:35.814Z,9.82
2023-01-29T15:33:41.275Z,9.48
2023-01-29T15:35:48.308Z,10.52
2023-01-29T15:38:01.581Z,9.07
2023-01-29T15:40:14.951Z,7.90
2023-01-29T15:42:23.687Z,7.38
2023-01-29T15:44:28.460Z,9.38
2023-01-29T15:46:39.019Z,11.32
2023-01-29T15:48:46.961Z,11.70
2023-01-29T15:50:56.706Z,10.30
2023-01-29T15:53:06.352Z,7.75
2023-01-29T15:55:16.173Z,9.02
2023-01-29T15:57:27.524Z,9.23
2023-01-29T15:59:35.986Z,9.63
2023-01-29T16:01:43.528Z,11.05
2023-01-29T16:03:49.120Z,9.93
2023-01-29T16:05:55.161Z,9.73
2023-01-29T16:08:00.624Z,8.00
2023-01-29T16:10:06.672Z,11.98
2023-01-29T16:12:15.745Z,10.73
2023-01-29T16:14:25.621Z,17.95
2023-01-29T16:16:31.075Z,18.88
2023-01-29T16:18:54.190Z,10.68
2023-01-29T16:21:06.665Z,9.55
2023-01-29T16:23:21.082Z,10.35
2023-01-29T16:25:26.948Z,10.00
2023-01-29T16:27:33.863Z,9.20
2023-01-29T16:29:39.063Z,10.50
2023-01-29T16:31:46.669Z,11.95
2023-01-29T16:33:54.113Z,10.70
2023-01-29T16:35:59.334Z,11.07
2023-01-29T16:38:07.888Z,10.90
2023-01-29T16:40:19.385Z,12.55
2023-01-29T16:42:32.341Z,15.85
2023-01-29T16:44:38.987Z,12.27
2023-01-29T16:46:49.235Z,14.88
2023-01-29T16:48:57.095Z,13.40
2023-01-29T16:51:08.168Z,15.90
2023-01-29T16:53:16.024Z,11.45
2023-01-29T16:55:25.780Z,11.35
2023-01-29T16:57:35.550Z,11.60
2023-01-29T16:59:42.975Z,11.23
2023-01-29T17:01:48.363Z,12.45
2023-01-29T17:04:03.496Z,15.20
2023-01-29T17:06:12.843Z,15.27
2023-01-29T17:08:24.091Z,13.13
2023-01-29T17:10:31.021Z,11.15
2023-01-29T17:12:38.875Z,10.27
2023-01-29T17:14:56.282Z,10.27
2023-01-29T17:17:07.020Z,9.30
2023-01-29T17:19:21.739Z,9.82
2023-01-29T17:21:26.770Z,11.50
2023-01-29T17:23:31.472Z,11.82
2023-01-29T17:25:36.121Z,11.10
2023-01-29T17:27:44.337Z,15.45
2023-01-29T17:29:49.100Z,19.17
2023-01-29T17:31:55.025Z,12.57
2023-01-29T17:34:00.536Z,13.10
2023-01-29T17:36:08.412Z,10.85
2023-01-29T17:38:24.339Z,11.52
2023-01-29T17:40:38.605Z,13.82
2023-01-29T17:42:43.388Z,12.60
2023-01-29T17:44:48.070Z,12.32
2023-01-29T17:46:52.926Z,12.30
2023-01-29T17:48:57.689Z,11.00
2023-01-29T17:51:05.742Z,27.42
2023-01-29T17:53:13.108Z,20.65
2023-01-29T17:55:18.298Z,12.80
2023-01-29T17:57:23.184Z,10.45
2023-01-29T17:59:31.303Z,10.07
2023-01-29T18:01:36.040Z,12.27
2023-01-29T18:03:41.323Z,9.95
2023-01-29T18:05:47.921Z,10.48
2023-01-29T18:07:54.806Z,11.52
2023-01-29T18:10:02.135Z,12.15
2023-01-29T18:12:06.915Z,12.65
2023-01-29T18:14:14.390Z,12.13
2023-01-29T18:16:22.033Z,11.55
2023-01-29T18:18:28.145Z,12.02
2023-01-29T18:20:36.821Z,13.25
2023-01-29T18:22:41.524Z,12.43
2023-01-29T18:24:46.241Z,12.27
2023-01-29T18:26:53.998Z,13.43
2023-01-29T18:28:59.208Z,11.90
2023-01-29T18:31:04.528Z,10.60
2023-01-29T18:33:09.327Z,13.05
2023-01-29T18:35:17.610Z,10.68
2023-01-29T18:37:22.854Z,13.40
2023-01-29T18:39:27.629Z,13.45
2023-01-29T18:41:32.323Z,12.80
2023-01-29T18:43:40.102Z,11.57
2023-01-29T18:45:45.336Z,12.68
2023-01-29T18:47:50.098Z,12.38
2023-01-29T18:49:55.286Z,12.65
2023-01-29T18:52:00.065Z,12.07
2023-01-29T18:54:04.773Z,11.30
2023-01-29T18:56:10.509Z,13.32
2023-01-29T18:58:25.991Z,12.00
2023-01-29T19:00:36.599Z,12.52
2023-01-29T19:02:43.206Z,13.23
2023-01-29T19:04:48.376Z,11.50
2023-01-29T19:06:53.036Z,13.35
2023-01-29T19:08:57.817Z,16.00
2023-01-29T19:11:05.614Z,13.82
2023-01-29T19:13:11.162Z,13.68
2023-01-29T19:15:16.436Z,11.43
2023-01-29T19:17:24.542Z,13.88
2023-01-29T19:19:29.870Z,11.55
2023-01-29T19:21:36.857Z,12.77
2023-01-29T19:23:42.253Z,11.95
2023-01-29T19:25:47.141Z,15.07
2023-01-29T19:27:52.173Z,13.80
2023-01-29T19:29:56.908Z,14.63
2023-01-29T19:32:01.583Z,15.00
2023-01-29T19:34:09.321Z,11.90
2023-01-29T19:36:14.178Z,12.65
2023-01-29T19:38:21.278Z,13.70
2023-01-29T19:40:26.493Z,12.85
2023-01-29T19:42:31.465Z,15.65
2023-01-29T19:44:36.165Z,13.13
2023-01-29T19:46:41.373Z,12.05
2023-01-29T19:48:46.152Z,12.85
2023-01-29T19:50:58.103Z,12.27
2023-01-29T19:53:02.841Z,16.00
2023-01-29T19:55:09.553Z,16.42
2023-01-29T19:57:14.271Z,17.55
2023-01-29T19:59:31.520Z,14.77
2023-01-29T20:01:36.358Z,14.82
2023-01-29T20:03:42.005Z,12.32
2023-01-29T20:05:46.739Z,16.48
2023-01-29T20:07:54.322Z,11.13
2023-01-29T20:09:58.989Z,14.60
2023-01-29T20:12:03.743Z,14.13
2023-01-29T20:14:08.454Z,14.60
2023-01-29T20:16:13.487Z,15.20
2023-01-29T20:18:18.769Z,14.73
2023-01-29T20:20:23.804Z,13.00
2023-01-29T20:22:32.540Z,14.38
2023-01-29T20:24:42.442Z,12.80
2023-01-29T20:26:47.479Z,14.52
2023-01-29T20:28:52.440Z,16.23
2023-01-29T20:30:59.203Z,13.77
2023-01-29T20:33:05.191Z,14.85
2023-01-29T20:35:11.693Z,16.13
2023-01-29T20:37:16.501Z,14.73
2023-01-29T20:39:21.289Z,15.18
2023-01-29T20:41:28.908Z,16.50
2023-01-29T20:43:33.635Z,13.98
2023-01-29T20:45:38.381Z,15.70
2023-01-29T20:47:43.076Z,17.20
2023-01-29T20:49:47.914Z,17.13
2023-01-29T20:51:52.657Z,17.25
2023-01-29T20:53:57.377Z,16.25
2023-01-29T20:56:04.281Z,15.15
2023-01-29T20:58:12.001Z,15.68
2023-01-29T21:00:18.214Z,15.40
2023-01-29T21:02:23.556Z,14.77
2023-01-29T21:04:28.429Z,15.18
2023-01-29T21:06:33.491Z,14.82
2023-01-29T21:08:38.447Z,12.80
2023-01-29T21:10:45.156Z,16.05
2023-01-29T21:12:49.778Z,14.85
2023-01-29T21:14:57.071Z,17.33
2023-01-29T21:17:01.982Z,14.98
2023-01-29T21:19:06.709Z,16.08
2023-01-29T21:21:11.386Z,14.43
2023-01-29T21:23:16.069Z,17.50
2023-01-29T21:25:21.493Z,15.90
2023-01-29T21:27:27.672Z,17.33
2023-01-29T21:29:32.511Z,16.20
2023-01-29T21:31:40.265Z,15.27
2023-01-29T21:33:45.351Z,16.33
2023-01-29T21:35:59.418Z,15.27
2023-01-29T21:38:04.090Z,16.65
2023-01-29T21:40:10.560Z,14.77
2023-01-29T21:42:27.733Z,15.90
2023-01-29T21:44:33.609Z,17.30
2023-01-29T21:46:41.175Z,15.70
2023-01-29T21:48:45.965Z,14.90
2023-01-29T21:50:51.199Z,15.35
2023-01-29T21:52:55.902Z,15.90
2023-01-29T21:55:00.676Z,15.55
2023-01-29T21:57:07.572Z,14.50
2023-01-29T21:59:12.387Z,15.63
2023-01-29T22:01:37.617Z,16.20
2023-01-29T22:03:47.095Z,14.60
2023-01-29T22:05:53.444Z,15.63
2023-01-29T22:07:58.713Z,15.27
2023-01-29T22:10:03.662Z,15.30
2023-01-29T22:12:11.039Z,17.27
2023-01-29T22:14:18.303Z,17.27
2023-01-29T22:16:23.112Z,15.25
2023-01-29T22:18:27.860Z,14.55
2023-01-29T22:20:36.758Z,15.50
2023-01-29T22:22:41.616Z,14.80
2023-01-29T22:24:46.751Z,14.23
2023-01-29T22:26:51.452Z,14.60
2023-01-29T22:28:56.232Z,15.02
2023-01-29T22:31:04.280Z,17.65
2023-01-29T22:33:10.537Z,15.35
2023-01-29T22:35:15.195Z,15.45
2023-01-29T22:37:22.463Z,15.70
2023-01-29T22:39:27.300Z,16.17
2023-01-29T22:41:33.748Z,15.32
2023-01-29T22:43:38.623Z,15.02
2023-01-29T22:45:43.321Z,14.80
2023-01-29T22:47:48.172Z,15.77
2023-01-29T22:49:52.858Z,17.00
2023-01-29T22:52:09.840Z,15.73
2023-01-29T22:54:17.907Z,15.85
2023-01-29T22:56:25.408Z,18.35
2023-01-29T22:58:30.368Z,14.77
2023-01-29T23:00:35.088Z,13.85
2023-01-29T23:02:39.891Z,14.55
2023-01-29T23:04:44.769Z,17.17
2023-01-29T23:06:49.449Z,16.50
2023-01-29T23:08:54.475Z,17.90
2023-01-29T23:11:14.367Z,15.30
2023-01-29T23:13:19.593Z,15.77
2023-01-29T23:15:24.275Z,15.85
2023-01-29T23:17:29.033Z,15.60
2023-01-29T23:19:33.664Z,17.23
2023-01-29T23:21:38.440Z,15.85
2023-01-29T23:23:45.040Z,17.17
2023-01-29T23:26:02.143Z,16.15
2023-01-29T23:28:09.442Z,15.85
2023-01-29T23:30:15.060Z,15.00
2023-01-29T23:32:21.766Z,15.60
2023-01-29T23:34:26.473Z,14.88
2023-01-29T23:36:31.242Z,13.85
2023-01-29T23:38:36.487Z,16.25
2023-01-29T23:40:41.131Z,17.15
2023-01-29T23:42:45.799Z,18.58
2023-01-29T23:44:53.020Z,15.02
2023-01-29T23:46:58.346Z,15.98
2023-01-29T23:49:03.177Z,15.10
2023-01-29T23:51:08.152Z,15.90
2023-01-29T23:53:13.029Z,18.17
2023-01-29T23:55:18.181Z,17.33
2023-01-29T23:57:22.810Z,17.25
2023-01-29T23:59:29.873Z,17.02
